createdAt,value
2023-02-15T11:59:40.226Z,17.77
2023-02-15T12:02:18.774Z,16.23
2023-02-15T12:04:54.713Z,16.07
2023-02-15T12:07:27.550Z,16.67
2023-02-15T12:10:02.558Z,15.70
2023-02-15T12:12:32.853Z,14.10
2023-02-15T12:15:03.790Z,16.80
2023-02-15T12:17:34.572Z,16.30
2023-02-15T12:20:04.369Z,16.90
2023-02-15T12:22:34.556Z,16.57
2023-02-15T12:25:04.524Z,18.47
2023-02-15T12:27:34.601Z,16.63
2023-02-15T12:30:08.449Z,16.30
2023-02-15T12:32:48.246Z,15.80
2023-02-15T12:35:20.414Z,17.70
2023-02-15T12:37:56.195Z,17.67
2023-02-15T12:40:26.870Z,14.87
2023-02-15T12:42:54.930Z,15.80
2023-02-15T12:45:28.746Z,15.18
2023-02-15T12:48:12.021Z,15.33
2023-02-15T12:50:41.152Z,14.10
2023-02-15T12:53:15.300Z,16.50
2023-02-15T12:55:52.980Z,15.50
2023-02-15T12:58:26.106Z,14.03
2023-02-15T13:01:14.877Z,14.27
2023-02-15T13:03:58.788Z,15.87
2023-02-15T13:06:27.855Z,13.77
2023-02-15T13:08:57.535Z,13.53
2023-02-15T13:11:35.113Z,14.80
2023-02-15T13:14:06.282Z,14.90
2023-02-15T13:16:39.313Z,14.90
2023-02-15T13:19:13.581Z,14.37
2023-02-15T13:21:45.111Z,13.43
2023-02-15T13:24:22.743Z,15.63
2023-02-15T13:26:51.071Z,14.40
2023-02-15T13:29:24.560Z,13.70
2023-02-15T13:31:55.492Z,14.35
2023-02-15T13:34:28.265Z,13.43
2023-02-15T13:37:01.410Z,13.70
2023-02-15T13:39:41.791Z,14.37
2023-02-15T13:42:23.130Z,14.60
2023-02-15T13:45:09.163Z,14.07
2023-02-15T13:47:50.512Z,14.43
2023-02-15T13:50:33.212Z,13.43
2023-02-15T13:53:21.777Z,13.63
2023-02-15T13:55:53.886Z,13.87
2023-02-15T13:58:47.393Z,13.77
2023-02-15T14:01:25.938Z,13.37
2023-02-15T14:04:32.472Z,12.83
2023-02-15T14:07:33.710Z,13.00
2023-02-15T14:10:26.380Z,14.20
2023-02-15T14:13:36.141Z,13.87
2023-02-15T14:16:11.073Z,12.70
2023-02-15T14:18:46.185Z,14.27
2023-02-15T14:21:20.670Z,13.13
2023-02-15T14:24:10.086Z,13.93
2023-02-15T14:26:47.418Z,12.43
2023-02-15T14:29:25.352Z,12.45
2023-02-15T14:31:59.527Z,13.87
2023-02-15T14:34:32.678Z,12.57
2023-02-15T14:37:03.615Z,12.27
2023-02-15T14:39:56.450Z,12.03
2023-02-15T14:42:33.526Z,12.50
2023-02-15T14:45:08.815Z,13.80
2023-02-15T14:47:42.249Z,14.13
2023-02-15T14:50:43.918Z,12.70
2023-02-15T14:53:40.762Z,12.15
2023-02-15T14:56:21.509Z,13.93
2023-02-15T14:59:18.056Z,12.00
2023-02-15T15:01:57.454Z,13.83
2023-02-15T15:04:32.285Z,13.57
2023-02-15T15:07:04.943Z,14.00
2023-02-15T15:09:37.012Z,13.30
2023-02-15T15:12:39.516Z,13.07
2023-02-15T15:15:09.045Z,14.70
2023-02-15T15:17:59.294Z,12.43
2023-02-15T15:20:46.067Z,13.07
2023-02-15T15:23:41.334Z,13.17
2023-02-15T15:26:31.606Z,12.83
2023-02-15T15:29:02.298Z,13.80
2023-02-15T15:31:49.296Z,13.45
2023-02-15T15:34:48.124Z,13.93
2023-02-15T15:37:53.868Z,12.70
2023-02-15T15:41:07.867Z,14.50
2023-02-15T15:44:01.443Z,12.87
2023-02-15T15:46:58.279Z,13.57
2023-02-15T15:49:31.789Z,12.33
2023-02-15T15:52:03.530Z,14.47
2023-02-15T15:54:32.680Z,14.53
2023-02-15T15:57:04.335Z,15.17
2023-02-15T15:59:35.977Z,14.40
2023-02-15T16:02:07.421Z,14.80
2023-02-15T16:04:37.019Z,17.67
2023-02-15T16:07:22.834Z,15.20
2023-02-15T16:09:57.023Z,14.30
2023-02-15T16:12:25.449Z,13.17
2023-02-15T16:14:56.237Z,13.77
2023-02-15T16:17:27.568Z,13.70
2023-02-15T16:20:07.978Z,14.20
2023-02-15T16:22:36.257Z,15.10
2023-02-15T16:25:22.334Z,14.83
2023-02-15T16:27:50.836Z,13.93
2023-02-15T16:30:26.570Z,14.03
2023-02-15T16:33:06.488Z,15.37
2023-02-15T16:35:35.931Z,16.10
2023-02-15T16:38:04.770Z,15.00
2023-02-15T16:40:48.870Z,16.73
2023-02-15T16:43:21.511Z,16.60
2023-02-15T16:45:51.423Z,17.23
2023-02-15T16:48:23.553Z,17.80
2023-02-15T16:50:54.932Z,17.97
2023-02-15T16:53:27.308Z,19.67
2023-02-15T16:55:57.450Z,18.60
2023-02-15T16:58:32.040Z,19.30
2023-02-15T17:01:04.139Z,18.60
2023-02-15T17:03:32.743Z,17.93
2023-02-15T17:06:02.653Z,19.80
2023-02-15T17:08:33.069Z,21.07
2023-02-15T17:11:14.475Z,20.80
2023-02-15T17:14:23.522Z,16.97
2023-02-15T17:16:57.325Z,16.70
2023-02-15T17:19:28.316Z,18.10
2023-02-15T17:21:58.735Z,16.67
2023-02-15T17:24:39.299Z,16.10
2023-02-15T17:27:14.112Z,18.27
2023-02-15T17:29:45.741Z,18.80
2023-02-15T17:32:21.506Z,18.10
2023-02-15T17:34:58.705Z,18.80
2023-02-15T17:37:30.758Z,21.60
2023-02-15T17:40:00.654Z,21.20
2023-02-15T17:42:28.871Z,19.83
2023-02-15T17:44:56.962Z,20.10
2023-02-15T17:47:30.170Z,20.37
2023-02-15T17:49:58.149Z,19.53
2023-02-15T17:52:28.925Z,15.97
2023-02-15T17:55:14.547Z,17.42
2023-02-15T17:57:42.987Z,18.27
2023-02-15T18:00:33.661Z,19.20
2023-02-15T18:03:20.360Z,18.77
2023-02-15T18:06:06.033Z,19.93
2023-02-15T18:08:51.806Z,19.33
2023-02-15T18:11:40.788Z,20.90
2023-02-15T18:14:10.798Z,22.40
2023-02-15T18:16:42.558Z,21.63
2023-02-15T18:19:17.508Z,19.30
2023-02-15T18:21:46.358Z,20.75
2023-02-15T18:24:18.192Z,17.93
2023-02-15T18:26:46.516Z,20.30
2023-02-15T18:29:14.521Z,20.90
2023-02-15T18:31:44.715Z,22.40
2023-02-15T18:34:23.677Z,19.33
2023-02-15T18:36:51.740Z,23.67
2023-02-15T18:39:28.050Z,22.83
2023-02-15T18:41:56.172Z,24.07
2023-02-15T18:44:24.295Z,21.97
2023-02-15T18:46:52.188Z,21.80
2023-02-15T18:49:21.584Z,22.80
2023-02-15T18:51:49.507Z,21.67
2023-02-15T18:54:20.397Z,21.58
2023-02-15T18:56:54.380Z,21.27
2023-02-15T18:59:23.593Z,24.20
2023-02-15T19:01:51.789Z,21.13
2023-02-15T19:04:22.268Z,21.87
2023-02-15T19:06:51.646Z,21.03
2023-02-15T19:09:22.093Z,24.10
2023-02-15T19:11:51.979Z,21.90
2023-02-15T19:14:29.361Z,21.10
2023-02-15T19:16:58.143Z,19.73
2023-02-15T19:19:28.181Z,20.00
2023-02-15T19:21:56.651Z,18.60
2023-02-15T19:24:26.567Z,16.83
2023-02-15T19:26:54.538Z,17.60
2023-02-15T19:29:27.637Z,18.40
2023-02-15T19:31:55.588Z,17.23
2023-02-15T19:34:23.899Z,17.42
2023-02-15T19:36:56.636Z,18.87
2023-02-15T19:39:27.910Z,18.30
2023-02-15T19:41:56.226Z,18.90
2023-02-15T19:44:24.169Z,18.00
2023-02-15T19:46:52.400Z,18.30
2023-02-15T19:49:20.467Z,19.40
2023-02-15T19:51:49.109Z,17.10
2023-02-15T19:54:31.767Z,18.35
2023-02-15T19:56:59.698Z,18.77
2023-02-15T19:59:29.847Z,18.97
2023-02-15T20:01:58.547Z,18.20
2023-02-15T20:04:26.947Z,19.75
2023-02-15T20:06:58.391Z,19.20
2023-02-15T20:09:29.751Z,17.90
2023-02-15T20:11:59.425Z,19.30
2023-02-15T20:14:27.405Z,19.38
2023-02-15T20:16:55.414Z,18.07
2023-02-15T20:19:23.306Z,19.87
2023-02-15T20:21:54.779Z,20.23
2023-02-15T20:24:24.609Z,19.43
2023-02-15T20:26:52.519Z,20.67
2023-02-15T20:29:21.970Z,18.30
2023-02-15T20:31:50.098Z,20.53
2023-02-15T20:34:18.160Z,19.40
2023-02-15T20:36:46.299Z,20.10
2023-02-15T20:39:16.390Z,21.23
2023-02-15T20:41:47.971Z,19.80
2023-02-15T20:44:23.433Z,21.33
2023-02-15T20:46:52.929Z,17.80
2023-02-15T20:49:21.123Z,18.93
2023-02-15T20:51:49.566Z,20.60
2023-02-15T20:54:19.391Z,19.50
2023-02-15T20:56:48.246Z,19.57
2023-02-15T20:59:24.189Z,21.73
2023-02-15T21:01:55.630Z,21.83
2023-02-15T21:04:26.908Z,19.97
2023-02-15T21:06:54.836Z,21.07
2023-02-15T21:09:22.723Z,21.57
2023-02-15T21:11:53.130Z,19.97
2023-02-15T21:14:24.431Z,20.67
2023-02-15T21:16:52.625Z,22.37
2023-02-15T21:19:22.970Z,23.40
2023-02-15T21:21:53.707Z,20.37
2023-02-15T21:24:24.192Z,21.10
2023-02-15T21:26:52.465Z,19.40
2023-02-15T21:29:24.618Z,21.63
2023-02-15T21:31:53.087Z,19.07
2023-02-15T21:34:21.656Z,22.60
2023-02-15T21:36:51.296Z,23.90
2023-02-15T21:39:23.223Z,22.77
2023-02-15T21:42:10.642Z,21.83
2023-02-15T21:44:57.683Z,19.33
2023-02-15T21:47:44.752Z,22.27
2023-02-15T21:50:32.282Z,21.20
2023-02-15T21:53:00.755Z,23.20
2023-02-15T21:55:29.254Z,23.73
2023-02-15T21:57:57.505Z,24.40
2023-02-15T22:00:27.904Z,22.67
2023-02-15T22:02:58.651Z,24.07
2023-02-15T22:05:30.146Z,21.70
2023-02-15T22:07:58.778Z,19.30
2023-02-15T22:10:29.717Z,22.20
2023-02-15T22:12:58.917Z,20.10
2023-02-15T22:15:31.312Z,22.30
2023-02-15T22:17:59.459Z,21.47
2023-02-15T22:20:27.462Z,18.17
2023-02-15T22:22:56.078Z,19.60
2023-02-15T22:25:26.672Z,16.67
2023-02-15T22:27:55.926Z,16.97
2023-02-15T22:30:27.280Z,17.10
2023-02-15T22:32:58.323Z,18.10
2023-02-15T22:35:28.500Z,19.60
2023-02-15T22:37:56.778Z,20.23
2023-02-15T22:40:30.179Z,17.13
2023-02-15T22:43:00.686Z,17.10
2023-02-15T22:45:29.463Z,18.33
2023-02-15T22:48:01.233Z,18.20
2023-02-15T22:50:31.011Z,18.07
2023-02-15T22:53:01.051Z,18.73
2023-02-15T22:55:32.188Z,17.40
2023-02-15T22:58:01.058Z,15.87
2023-02-15T23:00:32.350Z,17.30
2023-02-15T23:03:02.473Z,20.30
2023-02-15T23:05:32.434Z,17.92
2023-02-15T23:08:00.355Z,16.87
2023-02-15T23:10:30.051Z,15.00
2023-02-15T23:13:17.648Z,16.37
2023-02-15T23:15:48.839Z,16.00
2023-02-15T23:18:20.981Z,17.70
2023-02-15T23:20:52.535Z,18.40
2023-02-15T23:23:26.777Z,17.47
2023-02-15T23:25:55.055Z,17.20
2023-02-15T23:28:26.693Z,18.13
2023-02-15T23:30:55.094Z,17.20
2023-02-15T23:33:26.350Z,15.60
2023-02-15T23:35:54.681Z,17.27
2023-02-15T23:38:25.929Z,15.23
2023-02-15T23:41:16.253Z,16.00
2023-02-15T23:43:47.625Z,16.63
2023-02-15T23:46:24.273Z,17.30
2023-02-15T23:48:54.424Z,17.13
2023-02-15T23:51:24.164Z,15.23
2023-02-15T23:53:52.028Z,15.57
2023-02-15T23:56:20.213Z,14.20
2023-02-15T23:58:49.020Z,12.90
